Private Wetterstation Wechselburg
Wetterdaten: Montag, 23.03.2020
Datum Zeit Temp. +2m Bodentemp. Temp.+5cm Temp. Wind Windchill X Diff Temp. Feuchte +2m Feuchte +5cm Luftdruck Regen Wind Richtung Richtung Sonnenschein Taupunkt Windchill Windben
23.03.2020 00:00 -4,8 C 5,7 C -5,0 C -5,7 C -7,4 C 0,0 C 78 % 82 % 1039,4 hPa 0,0 l/m 0,0 km/h (0 Bft) SW 225 0 min -8,0 C -7,4 C 0,0 km/h (0 Bft)
23.03.2020 00:05 -4,9 C 5,7 C -5,1 C -5,8 C -7,5 C 0,0 C 78 % 82 % 1039,4 hPa 0,0 l/m 0,0 km/h (0 Bft) SW 225 0 min -8,1 C -7,5 C 0,0 km/h (0 Bft)
23.03.2020 00:11 -5,0 C 5,7 C -5,2 C -5,8 C -7,5 C 0,0 C 78 % 82 % 1039,4 hPa 0,0 l/m 0,0 km/h (0 Bft) N 0 0 min -8,2 C -7,5 C 0,0 km/h (0 Bft)
23.03.2020 00:25 -5,3 C 5,7 C -5,3 C -6,1 C -7,8 C 0,0 C 78 % 82 % 1039,4 hPa 0,0 l/m 0,0 km/h (0 Bft) SW 225 0 min -8,5 C -7,8 C 0,0 km/h (0 Bft)
23.03.2020 00:26 -5,3 C 5,7 C -5,3 C -6,1 C -7,8 C 0,0 C 78 % 82 % 1039,4 hPa 0,0 l/m 0,0 km/h (0 Bft) SW 225 0 min -8,5 C -7,8 C 0,0 km/h (0 Bft)
23.03.2020 00:40 -5,3 C 5,6 C -5,4 C -6,2 C -7,9 C 0,0 C 79 % 82 % 1039,4 hPa 0,0 l/m 0,0 km/h (0 Bft) SW 225 0 min -8,4 C -7,9 C 0,0 km/h (0 Bft)
23.03.2020 00:45 -5,3 C 5,6 C -5,5 C -6,2 C -7,9 C 0,0 C 79 % 83 % 1039,4 hPa 0,0 l/m 0,0 km/h (0 Bft) SW 225 0 min -8,4 C -7,9 C 0,0 km/h (0 Bft)
23.03.2020 00:50 -5,5 C 5,6 C -5,5 C -6,3 C -7,8 C 0,0 C 79 % 83 % 1039,4 hPa 0,0 l/m 0,0 km/h (0 Bft) SW 225 0 min -8,5 C -7,8 C 0,0 km/h (0 Bft)
23.03.2020 00:55 -5,6 C 5,6 C -5,6 C -6,4 C -7,9 C 0,0 C 79 % 83 % 1039,4 hPa 0,0 l/m 0,0 km/h (0 Bft) SW 225 0 min -8,6 C -7,9 C 0,0 km/h (0 Bft)
23.03.2020 01:00 -5,7 C 5,6 C -5,7 C -6,5 C -8,0 C 0,0 C 79 % 83 % 1039,4 hPa 0,0 l/m 0,0 km/h (0 Bft) SW 225 0 min -8,7 C -8,0 C 0,0 km/h (0 Bft)
23.03.2020 01:05 -5,7 C 5,6 C -5,7 C -6,5 C -8,0 C 0,0 C 79 % 83 % 1039,4 hPa 0,0 l/m 0,0 km/h (0 Bft) SW 225 0 min -8,7 C -8,0 C 0,0 km/h (0 Bft)
23.03.2020 01:10 -5,7 C 5,6 C -5,7 C -6,5 C -8,0 C 0,0 C 80 % 83 % 1039,4 hPa 0,0 l/m 0,0 km/h (0 Bft) SW 225 0 min -8,6 C -8,0 C 0,0 km/h (0 Bft)
23.03.2020 01:15 -5,7 C 5,6 C -5,7 C -6,5 C -8,0 C 0,0 C 80 % 83 % 1039,4 hPa 0,0 l/m 0,0 km/h (0 Bft) SW 225 0 min -8,6 C -8,0 C 0,0 km/h (0 Bft)
23.03.2020 01:20 -5,7 C 5,5 C -5,7 C -6,5 C -8,1 C 0,0 C 80 % 83 % 1039,4 hPa 0,0 l/m 0,0 km/h (0 Bft) W-NW 292 0 min -8,6 C -8,1 C 0,0 km/h (0 Bft)
23.03.2020 01:25 -5,7 C 5,5 C -5,8 C -6,4 C -7,9 C 0,0 C 80 % 83 % 1039,4 hPa 0,0 l/m 0,0 km/h (0 Bft) W-NW 292 0 min -8,6 C -7,9 C 0,0 km/h (0 Bft)
23.03.2020 01:30 -5,7 C 5,5 C -5,8 C -6,5 C -8,1 C 0,0 C 80 % 83 % 1039,4 hPa 0,0 l/m 0,0 km/h (0 Bft) W-NW 292 0 min -8,6 C -8,1 C 0,0 km/h (0 Bft)
23.03.2020 01:35 -5,9 C 5,5 C -5,9 C -6,7 C -8,3 C 0,0 C 80 % 84 % 1039,4 hPa 0,0 l/m 0,0 km/h (0 Bft) W-NW 292 0 min -8,8 C -8,3 C 0,0 km/h (0 Bft)
23.03.2020 01:40 -6,0 C 5,5 C -6,0 C -6,8 C -8,3 C 0,0 C 80 % 84 % 1039,2 hPa 0,0 l/m 0,0 km/h (0 Bft) W-NW 292 0 min -8,9 C -8,3 C 0,0 km/h (0 Bft)
23.03.2020 01:45 -5,9 C 5,5 C -6,0 C -6,7 C -8,3 C 0,0 C 80 % 84 % 1039,2 hPa 0,0 l/m 0,0 km/h (0 Bft) N-NO 22 0 min -8,8 C -8,3 C 0,0 km/h (0 Bft)
23.03.2020 01:50 -6,1 C 5,5 C -6,1 C -6,9 C -8,4 C 0,0 C 80 % 84 % 1039,2 hPa 0,0 l/m 0,0 km/h (0 Bft) N-NO 22 0 min -9,0 C -8,4 C 0,0 km/h (0 Bft)
23.03.2020 01:55 -6,1 C 5,4 C -6,1 C -6,8 C -8,2 C 0,0 C 81 % 84 % 1039,2 hPa 0,0 l/m 0,0 km/h (0 Bft) N-NO 22 0 min -8,8 C -8,2 C 0,0 km/h (0 Bft)
23.03.2020 02:00 -6,1 C 5,4 C -6,1 C -6,8 C -8,1 C 0,0 C 81 % 84 % 1039,2 hPa 0,0 l/m 0,2 km/h (0 Bft) NO 45 0 min -8,8 C -8,1 C 1,8 km/h (1 Bft)
23.03.2020 02:05 -6,0 C 5,4 C -6,0 C -6,6 C -7,8 C 0,0 C 81 % 84 % 1039,2 hPa 0,0 l/m 0,2 km/h (0 Bft) SW 225 0 min -8,7 C -7,8 C 0,0 km/h (0 Bft)
23.03.2020 02:11 -6,1 C 5,4 C -6,0 C -6,7 C -7,9 C 0,0 C 81 % 84 % 1039,2 hPa 0,0 l/m 0,2 km/h (0 Bft) N 0 0 min -8,8 C -7,9 C 0,0 km/h (0 Bft)
23.03.2020 02:26 -6,3 C 5,4 C -6,3 C -6,9 C -8,2 C 0,0 C 82 % 84 % 1039,8 hPa 0,0 l/m 0,0 km/h (0 Bft) NO 45 0 min -8,9 C -8,2 C 0,0 km/h (0 Bft)
23.03.2020 02:40 -6,4 C 5,3 C -6,3 C -7,2 C -8,8 C 0,0 C 82 % 84 % 1039,8 hPa 0,0 l/m 0,0 km/h (0 Bft) NO 45 0 min -9,0 C -8,8 C 0,0 km/h (0 Bft)
23.03.2020 02:45 -6,5 C 5,3 C -6,3 C -7,3 C -8,9 C 0,0 C 82 % 84 % 1039,8 hPa 0,0 l/m 0,0 km/h (0 Bft) NO 45 0 min -9,0 C -8,9 C 0,0 km/h (0 Bft)
23.03.2020 02:50 -6,6 C 5,3 C -6,3 C -7,4 C -8,9 C 0,0 C 81 % 84 % 1039,8 hPa 0,0 l/m 0,0 km/h (0 Bft) N-NO 22 0 min -9,3 C -8,9 C 0,0 km/h (0 Bft)
23.03.2020 02:55 -6,5 C 5,3 C -6,4 C -7,2 C -8,7 C 0,0 C 82 % 84 % 1039,8 hPa 0,0 l/m 0,0 km/h (0 Bft) NO 45 0 min -9,0 C -8,7 C 0,0 km/h (0 Bft)
23.03.2020 03:00 -6,7 C 5,3 C -6,4 C -7,4 C -8,8 C 0,0 C 82 % 85 % 1039,8 hPa 0,0 l/m 0,0 km/h (0 Bft) NW 315 0 min -9,2 C -8,8 C 0,0 km/h (0 Bft)
23.03.2020 03:05 -6,7 C 5,3 C -6,5 C -7,4 C -8,8 C 0,0 C 82 % 85 % 1039,8 hPa 0,0 l/m 0,0 km/h (0 Bft) NW 315 0 min -9,2 C -8,8 C 0,0 km/h (0 Bft)
23.03.2020 03:10 -6,7 C 5,3 C -6,5 C -7,4 C -8,9 C 0,0 C 82 % 85 % 1039,8 hPa 0,0 l/m 0,0 km/h (0 Bft) SW 225 0 min -9,2 C -8,9 C 0,0 km/h (0 Bft)
23.03.2020 03:15 -6,7 C 5,3 C -6,5 C -7,4 C -8,9 C 0,0 C 82 % 85 % 1039,8 hPa 0,0 l/m 0,0 km/h (0 Bft) SW 225 0 min -9,2 C -8,9 C 0,0 km/h (0 Bft)
23.03.2020 03:20 -6,7 C 5,2 C -6,5 C -7,4 C -8,9 C 0,0 C 82 % 85 % 1039,8 hPa 0,0 l/m 0,0 km/h (0 Bft) SW 225 0 min -9,2 C -8,9 C 0,0 km/h (0 Bft)
23.03.2020 03:25 -6,8 C 5,2 C -6,6 C -7,5 C -8,9 C 0,0 C 82 % 85 % 1039,8 hPa 0,0 l/m 0,0 km/h (0 Bft) NW 315 0 min -9,3 C -8,9 C 0,0 km/h (0 Bft)
23.03.2020 03:30 -6,8 C 5,2 C -6,6 C -7,5 C -8,9 C 0,0 C 82 % 85 % 1039,8 hPa 0,0 l/m 0,0 km/h (0 Bft) W 270 0 min -9,3 C -8,9 C 0,0 km/h (0 Bft)
23.03.2020 03:35 -6,7 C 5,2 C -6,6 C -7,4 C -8,9 C 0,0 C 83 % 85 % 1039,8 hPa 0,0 l/m 0,0 km/h (0 Bft) N-NW 337 0 min -9,1 C -8,9 C 0,0 km/h (0 Bft)
23.03.2020 03:40 -6,9 C 5,2 C -6,7 C -7,5 C -8,8 C 0,0 C 83 % 85 % 1039,5 hPa 0,0 l/m 0,0 km/h (0 Bft) NW 315 0 min -9,3 C -8,8 C 0,0 km/h (0 Bft)
23.03.2020 03:45 -6,9 C 5,2 C -6,7 C -7,6 C -9,1 C 0,0 C 83 % 85 % 1039,5 hPa 0,0 l/m 0,0 km/h (0 Bft) S-SW 202 0 min -9,3 C -9,1 C 0,0 km/h (0 Bft)
23.03.2020 03:50 -6,9 C 5,2 C -6,7 C -7,6 C -9,1 C 0,0 C 83 % 85 % 1039,5 hPa 0,0 l/m 0,0 km/h (0 Bft) S-SW 202 0 min -9,3 C -9,1 C 0,0 km/h (0 Bft)
23.03.2020 03:55 -6,9 C 5,2 C -6,7 C -7,6 C -9,0 C 0,0 C 83 % 85 % 1039,5 hPa 0,0 l/m 0,0 km/h (0 Bft) SW 225 0 min -9,3 C -9,0 C 0,0 km/h (0 Bft)
23.03.2020 04:00 -6,9 C 5,1 C -6,8 C -7,6 C -9,1 C 0,0 C 83 % 85 % 1039,5 hPa 0,0 l/m 0,0 km/h (0 Bft) N-NO 22 0 min -9,3 C -9,1 C 0,0 km/h (0 Bft)
23.03.2020 04:05 -6,9 C 5,1 C -6,9 C -7,6 C -8,9 C 0,0 C 83 % 85 % 1039,5 hPa 0,0 l/m 0,0 km/h (0 Bft) O-NO 67 0 min -9,3 C -8,9 C 0,0 km/h (0 Bft)
23.03.2020 04:11 -6,9 C 5,1 C -6,9 C -7,5 C -8,8 C 0,0 C 83 % 85 % 1039,5 hPa 0,0 l/m 0,0 km/h (0 Bft) N 0 0 min -9,3 C -8,8 C 0,0 km/h (0 Bft)
23.03.2020 04:25 -6,9 C 5,1 C -6,9 C -7,6 C -9,0 C 0,0 C 83 % 85 % 1039,2 hPa 0,0 l/m 0,3 km/h (0 Bft) W-SW 247 0 min -9,3 C -9,0 C 2,6 km/h (1 Bft)
23.03.2020 04:40 -7,1 C 5,0 C -7,1 C -7,8 C -9,2 C 0,0 C 83 % 85 % 1039,2 hPa 0,0 l/m 0,0 km/h (0 Bft) N-NO 22 0 min -9,5 C -9,2 C 0,0 km/h (0 Bft)
23.03.2020 04:45 -7,3 C 5,0 C -7,1 C -8,0 C -9,3 C 0,0 C 83 % 85 % 1039,2 hPa 0,0 l/m 0,0 km/h (0 Bft) N-NW 337 0 min -9,7 C -9,3 C 0,0 km/h (0 Bft)
23.03.2020 04:50 -7,3 C 5,0 C -7,2 C -8,0 C -9,3 C 0,0 C 83 % 85 % 1039,2 hPa 0,0 l/m 0,0 km/h (0 Bft) NO 45 0 min -9,7 C -9,3 C 0,0 km/h (0 Bft)
23.03.2020 04:55 -7,3 C 5,0 C -7,3 C -7,9 C -9,2 C 0,0 C 83 % 85 % 1039,2 hPa 0,0 l/m 0,0 km/h (0 Bft) N-NW 337 0 min -9,7 C -9,2 C 0,0 km/h (0 Bft)
23.03.2020 05:00 -7,3 C 5,0 C -7,2 C -8,0 C -9,3 C 0,0 C 83 % 85 % 1039,2 hPa 0,0 l/m 0,0 km/h (0 Bft) SW 225 0 min -9,7 C -9,3 C 0,0 km/h (0 Bft)
23.03.2020 05:05 -7,3 C 5,0 C -7,1 C -8,0 C -9,4 C 0,0 C 84 % 85 % 1039,2 hPa 0,0 l/m 0,0 km/h (0 Bft) SW 225 0 min -9,5 C -9,4 C 0,0 km/h (0 Bft)
23.03.2020 05:10 -7,3 C 5,0 C -7,1 C -8,0 C -9,5 C 0,0 C 84 % 85 % 1039,2 hPa 0,0 l/m 0,0 km/h (0 Bft) SW 225 0 min -9,5 C -9,5 C 0,0 km/h (0 Bft)
23.03.2020 05:15 -7,4 C 5,0 C -7,1 C -8,1 C -9,6 C 0,0 C 84 % 85 % 1039,2 hPa 0,0 l/m 0,0 km/h (0 Bft) SW 225 0 min -9,6 C -9,6 C 0,0 km/h (0 Bft)
23.03.2020 05:20 -7,3 C 4,9 C -7,3 C -8,1 C -9,6 C 0,0 C 84 % 85 % 1039,2 hPa 0,0 l/m 0,0 km/h (0 Bft) SW 225 0 min -9,5 C -9,6 C 0,0 km/h (0 Bft)
23.03.2020 05:25 -7,5 C 4,9 C -7,3 C -8,2 C -9,6 C 0,0 C 84 % 85 % 1039,2 hPa 0,0 l/m 0,0 km/h (0 Bft) SW 225 0 min -9,7 C -9,6 C 0,0 km/h (0 Bft)
23.03.2020 05:30 -7,6 C 4,9 C -7,3 C -8,3 C -9,6 C 0,0 C 84 % 85 % 1039,2 hPa 0,0 l/m 0,0 km/h (0 Bft) SW 225 0 min -9,8 C -9,6 C 0,0 km/h (0 Bft)
23.03.2020 05:35 -7,6 C 4,9 C -7,3 C -8,3 C -9,6 C 0,0 C 84 % 85 % 1039,2 hPa 0,0 l/m 0,0 km/h (0 Bft) SW 225 0 min -9,8 C -9,6 C 0,0 km/h (0 Bft)
23.03.2020 05:40 -7,7 C 4,9 C -7,3 C -8,4 C -9,8 C 0,0 C 84 % 85 % 1039,2 hPa 0,0 l/m 0,0 km/h (0 Bft) SW 225 0 min -9,9 C -9,8 C 0,0 km/h (0 Bft)
23.03.2020 05:45 -7,7 C 4,9 C -7,3 C -8,4 C -9,9 C 0,0 C 84 % 85 % 1039,2 hPa 0,0 l/m 0,0 km/h (0 Bft) SW 225 0 min -9,9 C -9,9 C 0,0 km/h (0 Bft)
23.03.2020 05:50 -7,7 C 4,9 C -7,2 C -8,4 C -9,9 C 0,0 C 84 % 85 % 1039,2 hPa 0,0 l/m 0,0 km/h (0 Bft) SW 225 0 min -9,9 C -9,9 C 0,0 km/h (0 Bft)
23.03.2020 05:55 -7,7 C 4,8 C -7,3 C -8,4 C -9,9 C 0,0 C 84 % 85 % 1039,2 hPa 0,0 l/m 0,0 km/h (0 Bft) SW 225 0 min -9,9 C -9,9 C 0,0 km/h (0 Bft)
23.03.2020 06:00 -7,7 C 4,8 C -7,4 C -8,4 C -9,8 C 0,0 C 84 % 85 % 1039,2 hPa 0,0 l/m 0,0 km/h (0 Bft) SW 225 0 min -9,9 C -9,8 C 0,0 km/h (0 Bft)
23.03.2020 06:05 -7,6 C 4,8 C -7,4 C -8,2 C -9,5 C 0,0 C 84 % 85 % 1039,2 hPa 0,0 l/m 0,0 km/h (0 Bft) O-NO 67 0 min -9,8 C -9,5 C 0,0 km/h (0 Bft)
23.03.2020 06:11 -7,5 C 4,8 C -7,3 C -8,1 C -9,3 C 0,0 C 85 % 85 % 1039,2 hPa 0,0 l/m 0,2 km/h (0 Bft) N 0 0 min -9,6 C -9,3 C 1,9 km/h (1 Bft)
23.03.2020 06:26 -7,3 C 4,6 C -7,3 C -7,8 C -8,8 C 0,0 C 85 % 85 % 1039,9 hPa 0,0 l/m 0,3 km/h (0 Bft) O-NO 67 0 min -9,4 C -8,8 C 3,9 km/h (1 Bft)
23.03.2020 06:40 -7,3 C 4,6 C -6,9 C -6,6 C -6,6 C 0,7 C 85 % 86 % 1040,1 hPa 0,0 l/m 0,0 km/h (0 Bft) NO 45 0 min -9,4 C -6,6 C 0,0 km/h (0 Bft)
23.03.2020 06:45 -7,2 C 4,6 C -6,4 C -5,0 C -5,0 C 2,2 C 85 % 86 % 1040,1 hPa 0,0 l/m 0,0 km/h (0 Bft) SW 225 5 min -9,3 C -5,0 C 0,0 km/h (0 Bft)
23.03.2020 06:50 -7,1 C 4,6 C -6,1 C -4,3 C -4,3 C 2,8 C 85 % 85 % 1040,1 hPa 0,0 l/m 0,0 km/h (0 Bft) SW 225 5 min -9,2 C -4,3 C 0,0 km/h (0 Bft)
23.03.2020 06:55 -6,9 C 4,6 C -6,0 C -3,2 C -3,2 C 3,7 C 86 % 85 % 1040,1 hPa 0,0 l/m 0,0 km/h (0 Bft) W 270 5 min -8,8 C -3,2 C 0,0 km/h (0 Bft)
23.03.2020 07:00 -6,9 C 4,6 C -5,7 C -2,2 C -2,2 C 4,7 C 86 % 85 % 1040,4 hPa 0,0 l/m 0,0 km/h (0 Bft) W 270 5 min -8,8 C -2,2 C 0,0 km/h (0 Bft)
23.03.2020 07:05 -6,4 C 4,6 C -5,3 C -0,7 C -0,7 C 5,7 C 86 % 85 % 1040,4 hPa 0,0 l/m 0,0 km/h (0 Bft) W-SW 247 5 min -8,3 C -0,7 C 0,0 km/h (0 Bft)
23.03.2020 07:10 -6,1 C 4,5 C -5,2 C 0,2 C 0,2 C 6,3 C 86 % 85 % 1040,4 hPa 0,0 l/m 0,0 km/h (0 Bft) W-SW 247 5 min -8,0 C 0,2 C 0,0 km/h (0 Bft)
23.03.2020 07:15 -6,1 C 4,5 C -5,1 C 1,3 C 1,3 C 7,4 C 86 % 85 % 1040,4 hPa 0,0 l/m 0,0 km/h (0 Bft) W-SW 247 5 min -8,0 C 1,3 C 0,0 km/h (0 Bft)
23.03.2020 07:20 -5,9 C 4,5 C -5,0 C 2,2 C 2,2 C 8,1 C 86 % 85 % 1040,4 hPa 0,0 l/m 0,0 km/h (0 Bft) W-SW 247 5 min -7,9 C 2,2 C 0,0 km/h (0 Bft)
23.03.2020 07:25 -5,5 C 4,5 C -4,9 C 3,1 C 3,1 C 8,6 C 87 % 85 % 1040,4 hPa 0,0 l/m 0,0 km/h (0 Bft) W-SW 247 5 min -7,3 C 3,1 C 0,0 km/h (0 Bft)
23.03.2020 07:30 -5,3 C 4,5 C -4,6 C 3,7 C 3,7 C 9,0 C 87 % 84 % 1040,4 hPa 0,0 l/m 0,0 km/h (0 Bft) W-SW 247 5 min -7,1 C 3,7 C 0,0 km/h (0 Bft)
23.03.2020 07:35 -5,1 C 4,5 C -4,5 C 4,7 C 4,7 C 9,8 C 87 % 84 % 1040,4 hPa 0,0 l/m 0,0 km/h (0 Bft) SW 225 5 min -6,9 C 4,7 C 0,0 km/h (0 Bft)
23.03.2020 07:40 -5,3 C 4,5 C -4,5 C 4,9 C 4,9 C 10,2 C 87 % 84 % 1040,4 hPa 0,0 l/m 0,0 km/h (0 Bft) SW 225 5 min -7,1 C 4,9 C 0,0 km/h (0 Bft)
23.03.2020 07:45 -5,3 C 4,5 C -4,4 C 5,1 C 5,1 C 10,4 C 86 % 84 % 1040,4 hPa 0,0 l/m 0,0 km/h (0 Bft) SW 225 5 min -7,3 C 5,1 C 0,0 km/h (0 Bft)
23.03.2020 07:50 -5,1 C 4,5 C -4,4 C 6,0 C 6,0 C 11,1 C 86 % 84 % 1040,4 hPa 0,0 l/m 0,0 km/h (0 Bft) SW 225 5 min -7,1 C 6,0 C 0,0 km/h (0 Bft)
23.03.2020 07:55 -4,9 C 4,5 C -4,4 C 6,5 C 6,5 C 11,4 C 86 % 83 % 1040,4 hPa 0,0 l/m 0,0 km/h (0 Bft) SW 225 5 min -6,9 C 6,5 C 0,0 km/h (0 Bft)
23.03.2020 08:00 -4,5 C 4,4 C -4,2 C 5,8 C 5,8 C 10,3 C 87 % 83 % 1040,4 hPa 0,0 l/m 0,0 km/h (0 Bft) W 270 5 min -6,3 C 5,8 C 0,0 km/h (0 Bft)
23.03.2020 08:05 -4,3 C 4,4 C -4,0 C 5,5 C 5,5 C 9,8 C 87 % 83 % 1040,4 hPa 0,0 l/m 0,0 km/h (0 Bft) N-NW 337 5 min -6,1 C 5,5 C 0,0 km/h (0 Bft)
23.03.2020 08:11 -4,1 C 4,4 C -3,7 C 5,5 C 5,5 C 9,6 C 87 % 83 % 1040,4 hPa 0,0 l/m 0,0 km/h (0 Bft) N 0 6 min -5,9 C 5,5 C 0,0 km/h (0 Bft)
23.03.2020 08:25 -3,3 C 4,3 C -2,7 C 5,9 C 5,9 C 9,2 C 86 % 82 % 1040,4 hPa 0,0 l/m 0,0 km/h (0 Bft) S-SO 157 14 min -5,3 C 5,9 C 0,0 km/h (0 Bft)
23.03.2020 08:40 -2,7 C 4,3 C -1,6 C 9,3 C 9,3 C 12,0 C 84 % 80 % 1040,6 hPa 0,0 l/m 0,0 km/h (0 Bft) SW 225 15 min -5,0 C 9,3 C 0,0 km/h (0 Bft)
23.03.2020 08:45 -2,4 C 4,3 C -1,3 C 9,5 C 9,5 C 11,9 C 84 % 78 % 1040,6 hPa 0,0 l/m 0,2 km/h (0 Bft) O-NO 67 5 min -4,7 C 9,5 C 2,9 km/h (1 Bft)
23.03.2020 08:50 -1,7 C 4,3 C -0,8 C 7,5 C 7,5 C 9,2 C 83 % 74 % 1040,6 hPa 0,0 l/m 1,1 km/h (1 Bft) SO 135 5 min -4,2 C 7,5 C 4,2 km/h (1 Bft)
23.03.2020 08:55 -1,2 C 4,3 C 0,1 C 4,7 C 4,7 C 5,9 C 82 % 72 % 1040,6 hPa 0,0 l/m 1,9 km/h (1 Bft) O-NO 67 5 min -3,9 C 4,7 C 4,8 km/h (1 Bft)
23.03.2020 09:00 -0,8 C 4,3 C 0,3 C 4,3 C 4,3 C 5,1 C 81 % 71 % 1040,7 hPa 0,0 l/m 1,4 km/h (1 Bft) N 360 5 min -3,6 C 4,3 C 1,8 km/h (1 Bft)
23.03.2020 09:05 -0,5 C 4,3 C 0,3 C 4,5 C 4,5 C 5,0 C 79 % 69 % 1040,7 hPa 0,0 l/m 1,8 km/h (1 Bft) NO 45 5 min -3,7 C 4,5 C 5,1 km/h (1 Bft)
23.03.2020 09:10 -0,4 C 4,3 C 0,5 C 4,1 C 4,1 C 4,5 C 77 % 68 % 1040,7 hPa 0,0 l/m 2,3 km/h (1 Bft) N-NO 22 5 min -3,9 C 4,1 C 2,9 km/h (1 Bft)
23.03.2020 09:15 -0,1 C 4,2 C 1,1 C 5,0 C 5,0 C 5,1 C 75 % 66 % 1040,7 hPa 0,0 l/m 2,3 km/h (1 Bft) O-NO 67 5 min -4,0 C 5,0 C 5,5 km/h (1 Bft)
23.03.2020 09:20 0,1 C 4,3 C 1,4 C 4,4 C 4,4 C 4,3 C 72 % 62 % 1040,3 hPa 0,0 l/m 3,4 km/h (1 Bft) NO 45 5 min -4,3 C 4,4 C 8,7 km/h (2 Bft)
23.03.2020 09:25 0,5 C 4,3 C 2,2 C 3,0 C 3,0 C 2,5 C 69 % 58 % 1040,3 hPa 0,0 l/m 5,5 km/h (1 Bft) NO 45 0 min -4,5 C 1,6 C 12,1 km/h (2 Bft)
23.03.2020 09:30 0,7 C 4,3 C 2,4 C 1,6 C 1,6 C 0,9 C 64 % 54 % 1040,3 hPa 0,0 l/m 7,6 km/h (2 Bft) O-NO 67 0 min -5,3 C -0,7 C 14,3 km/h (3 Bft)
23.03.2020 09:35 0,8 C 4,3 C 3,3 C 1,9 C 0,7 C 1,1 C 60 % 50 % 1040,3 hPa 0,0 l/m 10,1 km/h (2 Bft) NO 45 0 min -6,1 C -2,5 C 22,2 km/h (4 Bft)
23.03.2020 09:40 0,9 C 4,3 C 3,9 C 1,3 C 0,4 C 0,4 C 59 % 50 % 1040,3 hPa 0,0 l/m 9,0 km/h (2 Bft) O-NO 67 0 min -6,2 C -2,6 C 7,4 km/h (2 Bft)
23.03.2020 09:45 1,2 C 4,3 C 4,3 C 1,9 C 1,6 C 0,7 C 57 % 46 % 1040,3 hPa 0,0 l/m 8,0 km/h (2 Bft) N-NO 22 0 min -6,4 C -0,9 C 13,5 km/h (3 Bft)
23.03.2020 09:50 1,2 C 4,3 C 3,6 C 2,5 C 1,9 C 1,3 C 55 % 45 % 1040,3 hPa 0,0 l/m 8,4 km/h (2 Bft) NO 45 0 min -6,8 C -0,6 C 11,4 km/h (2 Bft)
23.03.2020 09:55 1,3 C 4,3 C 3,6 C 2,0 C 0,7 C 0,7 C 52 % 45 % 1040,3 hPa 0,0 l/m 9,8 km/h (2 Bft) O-NO 67 0 min -7,4 C -2,4 C 10,6 km/h (2 Bft)
23.03.2020 10:00 1,5 C 4,3 C 3,8 C 1,5 C 0,6 C 0,0 C 52 % 44 % 1040,3 hPa 0,0 l/m 9,3 km/h (2 Bft) O-NO 67 0 min -7,3 C -2,4 C 17,2 km/h (3 Bft)
23.03.2020 10:05 1,5 C 4,3 C 3,3 C 2,1 C 1,6 C 0,6 C 51 % 45 % 1040,3 hPa 0,0 l/m 9,5 km/h (2 Bft) N-NO 22 0 min -7,5 C -1,3 C 14,2 km/h (3 Bft)
23.03.2020 10:11 1,6 C 4,3 C 2,9 C 1,9 C 0,7 C 0,3 C 50 % 45 % 1040,3 hPa 0,0 l/m 10,0 km/h (2 Bft) N 0 0 min -7,7 C -2,5 C 12,1 km/h (2 Bft)
23.03.2020 10:25 1,9 C 4,3 C 2,3 C 1,8 C 1,1 C 0,0 C 49 % 48 % 1040,3 hPa 0,0 l/m 8,0 km/h (2 Bft) NO 45 0 min -7,7 C -1,4 C 11,9 km/h (2 Bft)
23.03.2020 10:40 2,1 C 4,3 C 2,3 C 2,2 C 2,2 C 0,1 C 50 % 47 % 1040,3 hPa 0,0 l/m 6,8 km/h (2 Bft) NO 45 0 min -7,2 C 0,2 C 3,9 km/h (1 Bft)
23.03.2020 10:45 2,2 C 4,3 C 2,2 C 2,5 C 1,5 C 0,3 C 48 % 47 % 1040,3 hPa 0,0 l/m 9,3 km/h (2 Bft) NO 45 0 min -7,6 C -1,3 C 11,4 km/h (2 Bft)
23.03.2020 10:50 2,3 C 4,3 C 2,3 C 2,2 C 0,9 C 0,0 C 48 % 46 % 1040,3 hPa 0,0 l/m 9,7 km/h (2 Bft) O-NO 67 0 min -7,6 C -2,2 C 11,1 km/h (2 Bft)
23.03.2020 10:55 2,3 C 4,3 C 2,3 C 2,1 C 1,1 C 0,0 C 47 % 45 % 1040,3 hPa 0,0 l/m 9,0 km/h (2 Bft) O-NO 67 0 min -7,8 C -1,7 C 13,2 km/h (3 Bft)
23.03.2020 11:00 2,2 C 4,3 C 2,2 C 2,2 C 1,4 C 0,0 C 46 % 44 % 1040,3 hPa 0,0 l/m 9,0 km/h (2 Bft) NO 45 0 min -8,2 C -1,4 C 10,3 km/h (2 Bft)
23.03.2020 11:05 2,2 C 4,4 C 2,3 C 1,9 C 1,4 C 0,0 C 46 % 45 % 1040,3 hPa 0,0 l/m 9,7 km/h (2 Bft) O-NO 67 0 min -8,2 C -1,6 C 9,5 km/h (2 Bft)
23.03.2020 11:10 2,5 C 4,4 C 2,5 C 2,7 C 2,3 C 0,2 C 46 % 45 % 1040,3 hPa 0,0 l/m 9,2 km/h (2 Bft) NO 45 0 min -7,9 C -0,4 C 9,3 km/h (2 Bft)
23.03.2020 11:15 2,5 C 4,4 C 4,8 C 2,4 C 2,3 C 0,0 C 46 % 41 % 1040,3 hPa 0,0 l/m 9,5 km/h (2 Bft) NO 45 0 min -7,9 C -0,4 C 8,2 km/h (2 Bft)
23.03.2020 11:20 2,4 C 4,4 C 6,0 C 3,6 C 3,2 C 1,2 C 45 % 40 % 1040,3 hPa 0,0 l/m 9,0 km/h (2 Bft) O-NO 67 0 min -8,3 C 0,8 C 10,3 km/h (2 Bft)
23.03.2020 11:25 2,5 C 4,4 C 5,4 C 3,9 C 3,3 C 1,4 C 45 % 38 % 1040,3 hPa 0,0 l/m 7,9 km/h (2 Bft) N-NO 22 0 min -8,2 C 1,2 C 9,5 km/h (2 Bft)
23.03.2020 11:30 2,7 C 4,4 C 4,5 C 4,2 C 3,7 C 1,5 C 45 % 40 % 1040,3 hPa 0,0 l/m 8,0 km/h (2 Bft) O-NO 67 0 min -8,0 C 1,6 C 7,6 km/h (2 Bft)
23.03.2020 11:35 2,7 C 4,4 C 6,1 C 4,0 C 4,0 C 1,3 C 45 % 38 % 1040,3 hPa 0,0 l/m 7,4 km/h (2 Bft) NO 45 0 min -8,0 C 2,1 C 4,3 km/h (1 Bft)
23.03.2020 11:40 2,8 C 4,4 C 6,7 C 4,7 C 4,2 C 1,9 C 45 % 37 % 1039,8 hPa 0,0 l/m 7,7 km/h (2 Bft) O-NO 67 0 min -7,9 C 2,3 C 13,2 km/h (3 Bft)
23.03.2020 11:45 2,7 C 4,4 C 6,8 C 4,8 C 4,1 C 2,1 C 44 % 35 % 1039,8 hPa 0,0 l/m 9,0 km/h (2 Bft) N-NO 22 0 min -8,3 C 1,8 C 10,5 km/h (2 Bft)
23.03.2020 11:50 2,8 C 4,4 C 6,8 C 5,1 C 4,7 C 2,3 C 44 % 34 % 1039,8 hPa 0,0 l/m 9,5 km/h (2 Bft) O-NO 67 0 min -8,2 C 2,4 C 14,8 km/h (3 Bft)
23.03.2020 11:55 2,8 C 4,5 C 6,7 C 5,5 C 4,9 C 2,7 C 43 % 34 % 1039,8 hPa 0,0 l/m 9,5 km/h (2 Bft) O-NO 67 0 min -8,5 C 2,7 C 9,0 km/h (2 Bft)
23.03.2020 12:00 2,8 C 4,5 C 7,0 C 5,5 C 4,8 C 2,7 C 43 % 33 % 1039,4 hPa 0,0 l/m 10,6 km/h (2 Bft) O-NO 67 0 min -8,5 C 2,3 C 14,8 km/h (3 Bft)
23.03.2020 12:05 2,8 C 4,5 C 7,0 C 5,8 C 5,4 C 3,0 C 42 % 32 % 1039,4 hPa 0,0 l/m 8,9 km/h (2 Bft) N-NO 22 0 min -8,8 C 3,4 C 10,6 km/h (2 Bft)
23.03.2020 12:11 2,8 C 4,5 C 6,4 C 5,9 C 5,2 C 3,1 C 42 % 34 % 1039,4 hPa 0,0 l/m 9,5 km/h (2 Bft) N 0 0 min -8,8 C 3,0 C 12,9 km/h (3 Bft)
23.03.2020 12:25 3,1 C 4,5 C 5,1 C 6,2 C 5,8 C 3,1 C 43 % 37 % 1039,4 hPa 0,0 l/m 9,3 km/h (2 Bft) NO 45 0 min -8,2 C 3,8 C 10,1 km/h (2 Bft)
23.03.2020 12:40 3,2 C 4,6 C 6,1 C 6,6 C 6,2 C 3,4 C 43 % 36 % 1039,4 hPa 0,0 l/m 9,2 km/h (2 Bft) O-NO 67 15 min -8,1 C 4,3 C 10,8 km/h (2 Bft)
23.03.2020 12:45 3,3 C 4,6 C 6,9 C 6,7 C 6,7 C 3,4 C 43 % 37 % 1039,4 hPa 0,0 l/m 7,6 km/h (2 Bft) O-NO 67 5 min -8,1 C 5,2 C 9,8 km/h (2 Bft)
23.03.2020 12:50 3,3 C 4,6 C 6,8 C 7,6 C 7,6 C 4,3 C 43 % 35 % 1039,4 hPa 0,0 l/m 6,4 km/h (2 Bft) NO 45 5 min -8,1 C 6,6 C 10,3 km/h (2 Bft)
23.03.2020 12:55 3,3 C 4,6 C 5,7 C 7,6 C 6,9 C 4,3 C 43 % 36 % 1039,4 hPa 0,0 l/m 8,0 km/h (2 Bft) NO 45 5 min -8,1 C 5,4 C 16,7 km/h (3 Bft)
23.03.2020 13:00 3,3 C 4,6 C 5,4 C 6,9 C 6,1 C 3,6 C 42 % 37 % 1039,3 hPa 0,0 l/m 9,3 km/h (2 Bft) O-NO 67 5 min -8,4 C 4,1 C 11,4 km/h (2 Bft)
23.03.2020 13:05 3,5 C 4,6 C 5,6 C 6,6 C 5,9 C 3,1 C 43 % 38 % 1039,3 hPa 0,0 l/m 10,0 km/h (2 Bft) O-NO 67 0 min -7,9 C 3,7 C 8,7 km/h (2 Bft)
23.03.2020 13:10 3,4 C 4,7 C 5,4 C 6,7 C 6,3 C 3,3 C 42 % 38 % 1039,3 hPa 0,0 l/m 8,9 km/h (2 Bft) NO 45 5 min -8,3 C 4,4 C 8,2 km/h (2 Bft)
23.03.2020 13:15 3,5 C 4,7 C 5,2 C 7,5 C 7,5 C 4,0 C 42 % 37 % 1039,3 hPa 0,0 l/m 6,9 km/h (2 Bft) O-NO 67 5 min -8,2 C 6,3 C 8,4 km/h (2 Bft)
23.03.2020 13:20 3,6 C 4,7 C 5,6 C 7,5 C 7,5 C 3,9 C 42 % 39 % 1039,3 hPa 0,0 l/m 6,8 km/h (2 Bft) O-NO 67 5 min -8,1 C 6,4 C 7,1 km/h (2 Bft)
23.03.2020 13:25 3,7 C 4,7 C 5,7 C 7,6 C 7,6 C 3,9 C 42 % 38 % 1039,3 hPa 0,0 l/m 7,4 km/h (2 Bft) NO 45 5 min -8,0 C 6,3 C 6,4 km/h (2 Bft)
23.03.2020 13:30 3,9 C 4,7 C 6,1 C 7,8 C 7,8 C 3,9 C 42 % 37 % 1039,3 hPa 0,0 l/m 6,9 km/h (2 Bft) O-NO 67 5 min -7,8 C 6,7 C 7,7 km/h (2 Bft)
23.03.2020 13:35 3,8 C 4,8 C 5,2 C 7,3 C 7,3 C 3,5 C 42 % 37 % 1039,3 hPa 0,0 l/m 7,6 km/h (2 Bft) O-NO 67 5 min -7,9 C 5,9 C 10,5 km/h (2 Bft)
23.03.2020 13:40 3,9 C 4,8 C 4,8 C 7,7 C 7,7 C 3,8 C 41 % 37 % 1039,3 hPa 0,0 l/m 7,2 km/h (2 Bft) N-NW 337 5 min -8,1 C 6,5 C 4,8 km/h (1 Bft)
23.03.2020 13:45 4,0 C 4,8 C 4,7 C 8,2 C 8,2 C 4,2 C 41 % 39 % 1039,3 hPa 0,0 l/m 6,9 km/h (2 Bft) O-NO 67 5 min -8,0 C 7,2 C 8,7 km/h (2 Bft)
23.03.2020 13:50 4,1 C 4,8 C 4,7 C 8,1 C 8,1 C 4,0 C 41 % 39 % 1039,3 hPa 0,0 l/m 6,9 km/h (2 Bft) O-NO 67 5 min -7,9 C 7,0 C 8,0 km/h (2 Bft)
23.03.2020 13:55 4,2 C 4,8 C 4,8 C 8,4 C 8,4 C 4,2 C 41 % 38 % 1039,3 hPa 0,0 l/m 6,9 km/h (2 Bft) NO 45 5 min -7,9 C 7,4 C 8,2 km/h (2 Bft)
23.03.2020 14:00 4,3 C 4,9 C 4,8 C 8,5 C 8,5 C 4,2 C 41 % 38 % 1039,3 hPa 0,0 l/m 6,4 km/h (2 Bft) O-NO 67 5 min -7,8 C 7,6 C 10,0 km/h (2 Bft)
23.03.2020 14:05 4,1 C 4,9 C 4,8 C 8,1 C 8,1 C 4,0 C 40 % 39 % 1039,3 hPa 0,0 l/m 7,4 km/h (2 Bft) O-NO 67 5 min -8,3 C 6,9 C 6,8 km/h (2 Bft)
23.03.2020 14:11 4,1 C 4,9 C 4,8 C 8,0 C 8,0 C 3,9 C 40 % 39 % 1039,3 hPa 0,0 l/m 7,2 km/h (2 Bft) N 0 6 min -8,3 C 6,8 C 6,4 km/h (2 Bft)
23.03.2020 14:26 4,0 C 5,0 C 4,3 C 7,7 C 6,8 C 3,7 C 40 % 39 % 1039,3 hPa 0,0 l/m 9,3 km/h (2 Bft) O-NO 67 15 min -8,4 C 5,0 C 9,7 km/h (2 Bft)
23.03.2020 14:40 4,3 C 5,0 C 4,6 C 8,6 C 8,6 C 4,3 C 41 % 41 % 1038,1 hPa 0,0 l/m 6,1 km/h (2 Bft) NO 45 14 min -7,8 C 7,8 C 7,4 km/h (2 Bft)
23.03.2020 14:45 4,3 C 5,0 C 4,4 C 8,3 C 7,5 C 4,0 C 40 % 40 % 1038,1 hPa 0,0 l/m 8,0 km/h (2 Bft) O-NO 67 5 min -8,1 C 6,1 C 10,3 km/h (2 Bft)
23.03.2020 14:50 4,2 C 5,0 C 4,3 C 7,5 C 7,5 C 3,3 C 40 % 39 % 1038,1 hPa 0,0 l/m 8,0 km/h (2 Bft) NO 45 5 min -8,2 C 6,1 C 5,8 km/h (2 Bft)
23.03.2020 14:55 4,2 C 5,2 C 4,3 C 7,7 C 7,7 C 3,5 C 40 % 40 % 1038,1 hPa 0,0 l/m 7,4 km/h (2 Bft) NO 45 5 min -8,2 C 6,4 C 11,9 km/h (2 Bft)
23.03.2020 15:00 4,2 C 5,2 C 4,3 C 7,9 C 7,3 C 3,7 C 40 % 39 % 1038,1 hPa 0,0 l/m 8,0 km/h (2 Bft) N-NO 22 5 min -8,2 C 5,8 C 12,1 km/h (2 Bft)
23.03.2020 15:05 4,0 C 5,2 C 4,1 C 7,1 C 6,1 C 3,1 C 39 % 39 % 1038,1 hPa 0,0 l/m 10,6 km/h (2 Bft) NW 315 0 min -8,7 C 3,9 C 7,9 km/h (2 Bft)
23.03.2020 15:10 4,0 C 5,2 C 4,1 C 7,0 C 6,7 C 3,0 C 39 % 38 % 1038,1 hPa 0,0 l/m 8,9 km/h (2 Bft) O-NO 67 0 min -8,7 C 4,9 C 3,5 km/h (1 Bft)
23.03.2020 15:15 4,3 C 5,2 C 4,3 C 7,9 C 7,9 C 3,6 C 40 % 40 % 1038,1 hPa 0,0 l/m 6,3 km/h (2 Bft) N-NO 22 5 min -8,1 C 7,0 C 12,1 km/h (2 Bft)
23.03.2020 15:20 4,3 C 5,2 C 4,4 C 7,7 C 7,7 C 3,4 C 40 % 40 % 1038,1 hPa 0,0 l/m 7,2 km/h (2 Bft) NO 45 5 min -8,1 C 6,5 C 14,0 km/h (3 Bft)
23.03.2020 15:25 4,3 C 5,2 C 4,3 C 7,8 C 7,1 C 3,5 C 40 % 39 % 1038,1 hPa 0,0 l/m 8,7 km/h (2 Bft) NO 45 5 min -8,1 C 5,4 C 20,1 km/h (4 Bft)
23.03.2020 15:30 4,2 C 5,2 C 4,2 C 7,3 C 6,7 C 3,1 C 40 % 39 % 1038,1 hPa 0,0 l/m 9,2 km/h (2 Bft) NO 45 0 min -8,2 C 4,9 C 9,8 km/h (2 Bft)
23.03.2020 15:35 4,2 C 5,2 C 4,2 C 7,3 C 6,9 C 3,1 C 40 % 40 % 1038,1 hPa 0,0 l/m 8,5 km/h (2 Bft) NO 45 0 min -8,2 C 5,2 C 10,6 km/h (2 Bft)
23.03.2020 15:40 4,3 C 5,3 C 4,3 C 7,7 C 7,7 C 3,4 C 40 % 40 % 1038,1 hPa 0,0 l/m 6,1 km/h (2 Bft) N 360 5 min -8,1 C 6,8 C 4,8 km/h (1 Bft)
23.03.2020 15:45 4,4 C 5,3 C 4,3 C 7,8 C 7,3 C 3,4 C 40 % 39 % 1038,1 hPa 0,0 l/m 7,7 km/h (2 Bft) NO 45 5 min -8,0 C 5,9 C 9,2 km/h (2 Bft)
23.03.2020 15:50 4,2 C 5,3 C 4,2 C 7,4 C 6,7 C 3,2 C 39 % 39 % 1038,1 hPa 0,0 l/m 8,4 km/h (2 Bft) NO 45 0 min -8,5 C 5,0 C 9,7 km/h (2 Bft)
23.03.2020 15:55 4,1 C 5,3 C 4,2 C 6,6 C 5,7 C 2,5 C 39 % 39 % 1038,1 hPa 0,0 l/m 9,7 km/h (2 Bft) N-NO 22 0 min -8,6 C 3,6 C 14,3 km/h (3 Bft)
23.03.2020 16:00 4,2 C 5,3 C 4,1 C 6,0 C 5,3 C 1,8 C 39 % 39 % 1038,1 hPa 0,0 l/m 9,5 km/h (2 Bft) NO 45 0 min -8,5 C 3,1 C 6,0 km/h (2 Bft)
23.03.2020 16:05 4,3 C 5,3 C 4,2 C 6,0 C 5,6 C 1,7 C 40 % 40 % 1038,1 hPa 0,0 l/m 8,2 km/h (2 Bft) NO 45 0 min -8,1 C 3,8 C 10,1 km/h (2 Bft)
23.03.2020 16:11 4,3 C 5,3 C 4,2 C 5,6 C 5,6 C 1,3 C 40 % 40 % 1038,1 hPa 0,0 l/m 7,4 km/h (2 Bft) N 0 0 min -8,1 C 4,0 C 9,5 km/h (2 Bft)
23.03.2020 16:25 4,3 C 5,4 C 4,2 C 6,2 C 6,2 C 1,9 C 40 % 41 % 1038,1 hPa 0,0 l/m 6,1 km/h (2 Bft) NO 45 0 min -8,1 C 5,1 C 9,0 km/h (2 Bft)
23.03.2020 16:40 4,1 C 5,4 C 4,0 C 5,5 C 4,3 C 1,4 C 40 % 41 % 1038,1 hPa 0,0 l/m 7,9 km/h (2 Bft) O-NO 67 0 min -8,3 C 2,3 C 10,0 km/h (2 Bft)
23.03.2020 16:45 4,1 C 5,4 C 3,9 C 4,5 C 4,5 C 0,4 C 40 % 41 % 1038,1 hPa 0,0 l/m 7,6 km/h (2 Bft) O-NO 67 0 min -8,3 C 2,7 C 8,9 km/h (2 Bft)
23.03.2020 16:50 4,1 C 5,4 C 3,9 C 5,0 C 5,0 C 0,9 C 40 % 40 % 1038,1 hPa 0,0 l/m 6,9 km/h (2 Bft) NO 45 0 min -8,3 C 3,4 C 5,6 km/h (1 Bft)
23.03.2020 16:55 4,1 C 5,4 C 3,8 C 4,9 C 4,9 C 0,8 C 40 % 40 % 1038,1 hPa 0,0 l/m 6,8 km/h (2 Bft) NO 45 0 min -8,3 C 3,4 C 10,5 km/h (2 Bft)
23.03.2020 17:00 4,0 C 5,4 C 3,7 C 4,5 C 4,5 C 0,5 C 40 % 41 % 1038,1 hPa 0,0 l/m 7,2 km/h (2 Bft) O-NO 67 0 min -8,4 C 2,8 C 10,3 km/h (2 Bft)
23.03.2020 17:05 4,0 C 5,4 C 3,7 C 4,6 C 3,7 C 0,6 C 40 % 41 % 1038,1 hPa 0,0 l/m 8,9 km/h (2 Bft) NO 45 0 min -8,4 C 1,4 C 10,3 km/h (2 Bft)
23.03.2020 17:10 4,0 C 5,5 C 3,7 C 3,9 C 3,7 C 0,0 C 40 % 41 % 1038,1 hPa 0,0 l/m 7,9 km/h (2 Bft) O-SO 112 0 min -8,4 C 1,6 C 5,0 km/h (1 Bft)
23.03.2020 17:15 3,9 C 5,5 C 3,6 C 3,8 C 3,6 C 0,0 C 40 % 40 % 1038,1 hPa 0,0 l/m 7,2 km/h (2 Bft) O-NO 67 0 min -8,4 C 1,7 C 7,9 km/h (2 Bft)
23.03.2020 17:20 3,9 C 5,5 C 3,6 C 4,0 C 3,3 C 0,1 C 40 % 41 % 1038,1 hPa 0,0 l/m 7,9 km/h (2 Bft) NO 45 0 min -8,4 C 1,2 C 11,4 km/h (2 Bft)
23.03.2020 17:25 3,9 C 5,5 C 3,5 C 3,8 C 2,9 C 0,0 C 40 % 40 % 1038,1 hPa 0,0 l/m 8,7 km/h (2 Bft) NO 45 0 min -8,4 C 0,5 C 5,8 km/h (2 Bft)
23.03.2020 17:30 3,9 C 5,5 C 3,4 C 3,9 C 3,3 C 0,0 C 40 % 41 % 1038,1 hPa 0,0 l/m 8,4 km/h (2 Bft) O-NO 67 0 min -8,4 C 1,0 C 7,1 km/h (2 Bft)
23.03.2020 17:35 3,7 C 5,5 C 3,3 C 3,7 C 3,6 C 0,0 C 40 % 43 % 1038,1 hPa 0,0 l/m 6,3 km/h (2 Bft) NO 45 0 min -8,6 C 2,0 C 5,5 km/h (1 Bft)
23.03.2020 17:40 3,7 C 5,5 C 3,2 C 3,6 C 3,4 C 0,0 C 41 % 42 % 1038,1 hPa 0,0 l/m 6,0 km/h (2 Bft) O-NO 67 0 min -8,3 C 1,9 C 6,4 km/h (2 Bft)
23.03.2020 17:45 3,6 C 5,5 C 3,1 C 3,5 C 2,4 C 0,0 C 40 % 41 % 1038,1 hPa 0,0 l/m 7,9 km/h (2 Bft) NO 45 0 min -8,7 C 0,1 C 10,1 km/h (2 Bft)
23.03.2020 17:50 3,6 C 5,5 C 3,1 C 3,4 C 2,1 C 0,0 C 40 % 41 % 1038,1 hPa 0,0 l/m 8,5 km/h (2 Bft) O-NO 67 0 min -8,7 C -0,4 C 8,7 km/h (2 Bft)
23.03.2020 17:55 3,5 C 5,5 C 2,9 C 3,1 C 2,2 C 0,0 C 40 % 43 % 1038,1 hPa 0,0 l/m 7,1 km/h (2 Bft) NO 45 0 min -8,8 C 0,1 C 5,1 km/h (1 Bft)
23.03.2020 18:00 3,4 C 5,5 C 2,7 C 3,1 C 2,4 C 0,0 C 41 % 43 % 1038,1 hPa 0,0 l/m 6,1 km/h (2 Bft) O-NO 67 0 min -8,6 C 0,7 C 8,9 km/h (2 Bft)
23.03.2020 18:05 3,2 C 5,5 C 2,5 C 2,9 C 2,2 C 0,0 C 41 % 44 % 1038,1 hPa 0,0 l/m 5,5 km/h (1 Bft) O-NO 67 0 min -8,8 C 0,7 C 7,1 km/h (2 Bft)
23.03.2020 18:11 3,2 C 5,5 C 2,5 C 2,8 C 2,0 C 0,0 C 41 % 44 % 1038,1 hPa 0,0 l/m 5,3 km/h (1 Bft) N 0 0 min -8,8 C 0,6 C 3,7 km/h (1 Bft)
23.03.2020 18:25 2,7 C 5,5 C 1,9 C 2,2 C 1,1 C 0,0 C 43 % 46 % 1038,1 hPa 0,0 l/m 4,7 km/h (1 Bft) NO 45 0 min -8,6 C -0,2 C 5,8 km/h (2 Bft)
23.03.2020 18:40 2,3 C 5,6 C 1,5 C 1,5 C -0,1 C 0,0 C 44 % 48 % 1038,1 hPa 0,0 l/m 4,8 km/h (1 Bft) O-NO 67 0 min -8,7 C -1,6 C 3,9 km/h (1 Bft)
23.03.2020 18:45 2,1 C 5,6 C 1,3 C 1,4 C 0,0 C 0,0 C 45 % 48 % 1038,1 hPa 0,0 l/m 3,9 km/h (1 Bft) O-NO 67 0 min -8,6 C 0,0 C 3,9 km/h (1 Bft)
23.03.2020 18:50 2,0 C 5,6 C 1,1 C 1,3 C -0,1 C 0,0 C 45 % 48 % 1038,1 hPa 0,0 l/m 3,5 km/h (1 Bft) NO 45 0 min -8,7 C -0,1 C 4,0 km/h (1 Bft)
23.03.2020 18:55 1,9 C 5,6 C 1,1 C 1,2 C -0,3 C 0,0 C 46 % 49 % 1038,1 hPa 0,0 l/m 3,4 km/h (1 Bft) NO 45 0 min -8,5 C -0,3 C 3,5 km/h (1 Bft)
23.03.2020 19:00 1,7 C 5,6 C 0,9 C 1,0 C -0,3 C 0,0 C 46 % 49 % 1038,1 hPa 0,0 l/m 3,2 km/h (1 Bft) NO 45 0 min -8,7 C -0,3 C 3,9 km/h (1 Bft)
23.03.2020 19:05 1,5 C 5,6 C 0,4 C 0,9 C -0,4 C 0,0 C 47 % 52 % 1038,1 hPa 0,0 l/m 2,6 km/h (1 Bft) NO 45 0 min -8,6 C -0,4 C 2,3 km/h (1 Bft)
23.03.2020 19:10 1,3 C 5,6 C 0,3 C 0,7 C -0,4 C 0,0 C 47 % 52 % 1038,1 hPa 0,0 l/m 2,3 km/h (1 Bft) NO 45 0 min -8,7 C -0,4 C 2,6 km/h (1 Bft)
23.03.2020 19:15 1,1 C 5,6 C -0,1 C 0,5 C -0,8 C 0,0 C 48 % 54 % 1038,1 hPa 0,0 l/m 1,8 km/h (1 Bft) NO 45 0 min -8,7 C -0,8 C 1,9 km/h (1 Bft)
23.03.2020 19:20 0,8 C 5,6 C -0,5 C 0,2 C -1,1 C 0,0 C 50 % 57 % 1038,1 hPa 0,0 l/m 1,6 km/h (1 Bft) O-NO 67 0 min -8,4 C -1,1 C 2,3 km/h (1 Bft)
23.03.2020 19:25 0,3 C 5,6 C -1,0 C -0,3 C -1,5 C 0,0 C 52 % 60 % 1038,1 hPa 0,0 l/m 2,1 km/h (1 Bft) O-NO 67 0 min -8,4 C -1,5 C 2,3 km/h (1 Bft)
23.03.2020 19:30 0,1 C 5,6 C -1,3 C -0,5 C -1,8 C 0,0 C 53 % 61 % 1038,1 hPa 0,0 l/m 2,1 km/h (1 Bft) O-NO 67 0 min -8,3 C -1,8 C 2,4 km/h (1 Bft)
23.03.2020 19:35 -0,3 C 5,6 C -1,6 C -0,9 C -2,1 C 0,0 C 55 % 62 % 1038,1 hPa 0,0 l/m 1,6 km/h (1 Bft) NO 45 0 min -8,2 C -2,1 C 1,6 km/h (1 Bft)
23.03.2020 19:40 -0,5 C 5,6 C -1,8 C -1,1 C -2,3 C 0,0 C 57 % 63 % 1038,1 hPa 0,0 l/m 0,8 km/h (0 Bft) NO 45 0 min -7,9 C -2,3 C 0,0 km/h (0 Bft)
23.03.2020 19:45 -0,7 C 5,6 C -2,0 C -1,3 C -2,5 C 0,0 C 58 % 65 % 1038,1 hPa 0,0 l/m 0,0 km/h (0 Bft) O-NO 67 0 min -7,9 C -2,5 C 0,0 km/h (0 Bft)
23.03.2020 19:50 -0,7 C 5,6 C -2,1 C -1,4 C -2,7 C 0,0 C 59 % 65 % 1038,1 hPa 0,0 l/m 0,0 km/h (0 Bft) O-NO 67 0 min -7,7 C -2,7 C 0,0 km/h (0 Bft)
23.03.2020 19:55 -0,9 C 5,6 C -2,3 C -1,6 C -3,0 C 0,0 C 60 % 67 % 1038,1 hPa 0,0 l/m 0,0 km/h (0 Bft) O-NO 67 0 min -7,7 C -3,0 C 0,0 km/h (0 Bft)
23.03.2020 20:00 -1,1 C 5,6 C -2,4 C -1,7 C -3,0 C 0,0 C 60 % 68 % 1038,1 hPa 0,0 l/m 0,6 km/h (0 Bft) NO 45 0 min -7,9 C -3,0 C 1,8 km/h (1 Bft)
23.03.2020 20:05 -1,3 C 5,6 C -2,3 C -1,9 C -3,0 C 0,0 C 62 % 69 % 1038,1 hPa 0,0 l/m 1,6 km/h (1 Bft) O-NO 67 0 min -7,6 C -3,0 C 2,1 km/h (1 Bft)
23.03.2020 20:11 -1,4 C 5,6 C -2,4 C -1,9 C -3,0 C 0,0 C 63 % 70 % 1038,1 hPa 0,0 l/m 1,8 km/h (1 Bft) N 0 0 min -7,5 C -3,0 C 1,6 km/h (1 Bft)
23.03.2020 20:25 -1,7 C 5,6 C -2,7 C -2,2 C -3,3 C 0,0 C 64 % 71 % 1038,1 hPa 0,0 l/m 0,2 km/h (0 Bft) NO 45 0 min -7,6 C -3,3 C 0,0 km/h (0 Bft)
23.03.2020 20:40 -1,9 C 5,6 C -2,9 C -2,6 C -3,9 C 0,0 C 64 % 71 % 1038,1 hPa 0,0 l/m 0,0 km/h (0 Bft) NO 45 0 min -7,8 C -3,9 C 0,0 km/h (0 Bft)
23.03.2020 20:45 -1,9 C 5,6 C -3,0 C -2,6 C -4,0 C 0,0 C 64 % 71 % 1038,1 hPa 0,0 l/m 0,0 km/h (0 Bft) NO 45 0 min -7,8 C -4,0 C 0,0 km/h (0 Bft)
23.03.2020 20:50 -1,9 C 5,6 C -3,1 C -2,6 C -4,0 C 0,0 C 65 % 71 % 1038,1 hPa 0,0 l/m 0,0 km/h (0 Bft) NO 45 0 min -7,6 C -4,0 C 0,0 km/h (0 Bft)
23.03.2020 20:55 -2,1 C 5,6 C -3,2 C -2,7 C -3,9 C 0,0 C 65 % 71 % 1038,1 hPa 0,0 l/m 0,0 km/h (0 Bft) NO 45 0 min -7,8 C -3,9 C 0,0 km/h (0 Bft)
23.03.2020 21:00 -2,2 C 5,6 C -3,3 C -2,8 C -4,1 C 0,0 C 65 % 72 % 1038,1 hPa 0,0 l/m 0,0 km/h (0 Bft) NO 45 0 min -7,9 C -4,1 C 0,0 km/h (0 Bft)
23.03.2020 21:05 -2,4 C 5,6 C -3,3 C -3,1 C -4,6 C 0,0 C 65 % 72 % 1038,1 hPa 0,0 l/m 0,0 km/h (0 Bft) NO 45 0 min -8,1 C -4,6 C 0,0 km/h (0 Bft)
23.03.2020 21:10 -2,5 C 5,6 C -3,3 C -3,3 C -4,9 C 0,0 C 65 % 72 % 1038,1 hPa 0,0 l/m 0,0 km/h (0 Bft) NO 45 0 min -8,2 C -4,9 C 0,0 km/h (0 Bft)
23.03.2020 21:15 -2,5 C 5,6 C -3,5 C -3,3 C -4,9 C 0,0 C 66 % 72 % 1038,1 hPa 0,0 l/m 0,0 km/h (0 Bft) N 360 0 min -8,0 C -4,9 C 0,0 km/h (0 Bft)
23.03.2020 21:20 -2,7 C 5,6 C -3,6 C -3,4 C -4,9 C 0,0 C 66 % 72 % 1038,1 hPa 0,0 l/m 0,0 km/h (0 Bft) NW 315 0 min -8,1 C -4,9 C 0,0 km/h (0 Bft)
23.03.2020 21:25 -2,8 C 5,6 C -3,7 C -3,5 C -5,0 C 0,0 C 67 % 72 % 1038,1 hPa 0,0 l/m 0,0 km/h (0 Bft) SW 225 0 min -8,1 C -5,0 C 0,0 km/h (0 Bft)
23.03.2020 21:30 -2,8 C 5,6 C -3,6 C -3,6 C -5,1 C 0,0 C 67 % 73 % 1038,1 hPa 0,0 l/m 0,0 km/h (0 Bft) SW 225 0 min -8,1 C -5,1 C 0,0 km/h (0 Bft)
23.03.2020 21:35 -2,9 C 5,6 C -3,7 C -3,7 C -5,4 C 0,0 C 68 % 74 % 1038,1 hPa 0,0 l/m 0,0 km/h (0 Bft) SW 225 0 min -8,0 C -5,4 C 0,0 km/h (0 Bft)
23.03.2020 21:40 -2,9 C 5,6 C -3,8 C -3,8 C -5,5 C 0,0 C 68 % 74 % 1038,4 hPa 0,0 l/m 0,0 km/h (0 Bft) SW 225 0 min -8,0 C -5,5 C 0,0 km/h (0 Bft)
23.03.2020 21:45 -3,2 C 5,6 C -3,9 C -4,1 C -5,8 C 0,0 C 68 % 75 % 1038,4 hPa 0,0 l/m 0,0 km/h (0 Bft) N-NW 337 0 min -8,2 C -5,8 C 0,0 km/h (0 Bft)
23.03.2020 21:50 -3,2 C 5,6 C -4,0 C -4,0 C -5,7 C 0,0 C 69 % 75 % 1038,4 hPa 0,0 l/m 0,3 km/h (0 Bft) NO 45 0 min -8,1 C -5,7 C 3,2 km/h (1 Bft)
23.03.2020 21:55 -3,0 C 5,4 C -3,7 C -3,5 C -4,6 C 0,0 C 69 % 74 % 1038,4 hPa 0,0 l/m 1,9 km/h (1 Bft) O-NO 67 0 min -7,9 C -4,6 C 2,1 km/h (1 Bft)
23.03.2020 22:00 -2,8 C 5,4 C -3,4 C -3,4 C -4,6 C 0,0 C 69 % 74 % 1038,4 hPa 0,0 l/m 2,6 km/h (1 Bft) NO 45 0 min -7,7 C -4,6 C 2,7 km/h (1 Bft)
23.03.2020 22:05 -2,8 C 5,4 C -3,5 C -3,2 C -4,1 C 0,0 C 69 % 74 % 1038,4 hPa 0,0 l/m 1,1 km/h (1 Bft) SW 225 0 min -7,7 C -4,1 C 0,0 km/h (0 Bft)
23.03.2020 22:11 -2,9 C 5,4 C -3,7 C -3,4 C -4,5 C 0,0 C 69 % 74 % 1038,4 hPa 0,0 l/m 0,3 km/h (0 Bft) N 0 0 min -7,8 C -4,5 C 0,0 km/h (0 Bft)
23.03.2020 22:25 -3,3 C 5,4 C -4,1 C -4,1 C -5,8 C 0,0 C 69 % 75 % 1038,6 hPa 0,0 l/m 0,0 km/h (0 Bft) W-SW 247 0 min -8,2 C -5,8 C 0,0 km/h (0 Bft)
23.03.2020 22:40 -3,7 C 5,5 C -4,3 C -4,6 C -6,4 C 0,0 C 70 % 76 % 1038,6 hPa 0,0 l/m 0,0 km/h (0 Bft) W-SW 247 0 min -8,4 C -6,4 C 0,0 km/h (0 Bft)
23.03.2020 22:45 -3,9 C 5,4 C -4,4 C -4,8 C -6,5 C 0,0 C 70 % 77 % 1038,6 hPa 0,0 l/m 0,0 km/h (0 Bft) N-NW 337 0 min -8,5 C -6,5 C 0,0 km/h (0 Bft)
23.03.2020 22:50 -4,0 C 5,4 C -4,5 C -4,8 C -6,4 C 0,0 C 70 % 77 % 1038,6 hPa 0,0 l/m 0,2 km/h (0 Bft) NO 45 0 min -8,6 C -6,4 C 4,5 km/h (1 Bft)
23.03.2020 22:55 -3,9 C 5,4 C -4,4 C -4,4 C -5,5 C 0,0 C 71 % 77 % 1038,6 hPa 0,0 l/m 1,1 km/h (1 Bft) O-NO 67 0 min -8,4 C -5,5 C 3,5 km/h (1 Bft)
23.03.2020 23:00 -3,7 C 5,4 C -4,2 C -4,1 C -5,0 C 0,0 C 71 % 77 % 1038,6 hPa 0,0 l/m 1,9 km/h (1 Bft) O-NO 67 0 min -8,2 C -5,0 C 2,1 km/h (1 Bft)
23.03.2020 23:05 -3,7 C 5,4 C -4,2 C -4,1 C -4,9 C 0,0 C 72 % 77 % 1038,6 hPa 0,0 l/m 1,1 km/h (1 Bft) SW 225 0 min -8,0 C -4,9 C 0,0 km/h (0 Bft)
23.03.2020 23:10 -3,7 C 5,4 C -4,3 C -4,2 C -5,1 C 0,0 C 72 % 77 % 1038,6 hPa 0,0 l/m 0,2 km/h (0 Bft) W-SW 247 0 min -8,0 C -5,1 C 0,0 km/h (0 Bft)
23.03.2020 23:15 -3,9 C 5,4 C -4,5 C -4,5 C -5,7 C 0,0 C 72 % 78 % 1038,6 hPa 0,0 l/m 0,0 km/h (0 Bft) SW 225 0 min -8,2 C -5,7 C 0,0 km/h (0 Bft)
23.03.2020 23:20 -4,0 C 5,4 C -4,5 C -4,7 C -6,0 C 0,0 C 72 % 78 % 1038,6 hPa 0,0 l/m 0,0 km/h (0 Bft) N-NW 337 0 min -8,3 C -6,0 C 0,0 km/h (0 Bft)
23.03.2020 23:25 -4,1 C 5,4 C -4,6 C -4,8 C -6,2 C 0,0 C 73 % 78 % 1038,6 hPa 0,0 l/m 0,0 km/h (0 Bft) N-NW 337 0 min -8,2 C -6,2 C 0,0 km/h (0 Bft)
23.03.2020 23:30 -4,1 C 5,4 C -4,7 C -4,8 C -6,3 C 0,0 C 73 % 78 % 1038,6 hPa 0,0 l/m 0,0 km/h (0 Bft) N-NW 337 0 min -8,2 C -6,3 C 0,0 km/h (0 Bft)
23.03.2020 23:35 -4,1 C 5,4 C -4,8 C -4,8 C -6,3 C 0,0 C 73 % 79 % 1038,6 hPa 0,0 l/m 0,0 km/h (0 Bft) N 360 0 min -8,2 C -6,3 C 0,0 km/h (0 Bft)
23.03.2020 23:40 -4,1 C 5,3 C -4,8 C -4,8 C -6,3 C 0,0 C 74 % 79 % 1038,6 hPa 0,0 l/m 0,0 km/h (0 Bft) N 360 0 min -8,0 C -6,3 C 0,0 km/h (0 Bft)
23.03.2020 23:45 -4,1 C 5,3 C -4,8 C -4,8 C -6,2 C 0,0 C 74 % 78 % 1038,6 hPa 0,0 l/m 0,0 km/h (0 Bft) N 360 0 min -8,0 C -6,2 C 0,0 km/h (0 Bft)
23.03.2020 23:50 -4,1 C 5,3 C -4,7 C -4,8 C -6,2 C 0,0 C 74 % 79 % 1038,6 hPa 0,0 l/m 0,0 km/h (0 Bft) SW 225 0 min -8,0 C -6,2 C 0,0 km/h (0 Bft)
23.03.2020 23:55 -4,3 C 5,3 C -4,8 C -5,0 C -6,3 C 0,0 C 74 % 79 % 1038,6 hPa 0,0 l/m 0,3 km/h (0 Bft) S 180 0 min -8,2 C -6,3 C 1,6 km/h (1 Bft)
_ Min-Zeit 05:40 09:15 06:00 05:40 05:45 00:00 15:05 12:05 14:40 - 00:00 - - - 05:40 05:45 00:00
Minimum _ -7,7 C 4,2 C -7,4 C -8,4 C -9,9 C 0,0 C 39 % 32 % 1038,1 hPa - 0,0 km/h (0 Bft) - - - -9,9 C -9,9 C 0,0 km/h (0 Bft)
_ Max-Zeit 15:45 00:00 12:00 08:45 08:45 08:40 07:25 06:40 09:00 00:00 12:00 - - 08:40 09:00 08:45 09:35
Maximum _ 4,4 C 5,7 C 7,0 C 9,5 C 9,5 C 12,0 C 87 % 86 % 1040,7 hPa 0,0 l/m 10,6 km/h
O-NO (2 Bft)
- - 15 min -3,6 C 9,5 C 22,2 km/h
NO (4 Bft)
Durchschnitt _ -1,5 C 5,1 C -1,2 C -0,2 C -1,1 C 1,6 C 63 % 64 % 1039,1 hPa #0,0 l/m 3,3 km/h (1 Bft) O-NO - #5:35 h -8,2 C -1,8 C 4,0 km/h (1 Bft)
2020 www.wetterstation-wechselburg.de